sensor_id;sensor_type;location;lat;lon;timestamp;temperature;humidity
12013;DHT22;6065;48.138;16.402;2024-02-04T00:00:19;9.80;99.90
12013;DHT22;6065;48.138;16.402;2024-02-04T00:02:45;9.80;99.90
12013;DHT22;6065;48.138;16.402;2024-02-04T00:05:34;9.80;99.90
12013;DHT22;6065;48.138;16.402;2024-02-04T00:08:01;9.70;99.90
12013;DHT22;6065;48.138;16.402;2024-02-04T00:10:28;9.70;99.90
12013;DHT22;6065;48.138;16.402;2024-02-04T00:12:55;9.70;99.90
12013;DHT22;6065;48.138;16.402;2024-02-04T00:15:22;9.70;99.90
12013;DHT22;6065;48.138;16.402;2024-02-04T00:17:49;9.70;99.90
12013;DHT22;6065;48.138;16.402;2024-02-04T00:20:16;9.70;99.90
12013;DHT22;6065;48.138;16.402;2024-02-04T00:22:44;9.70;99.90
12013;DHT22;6065;48.138;16.402;2024-02-04T00:25:11;9.70;99.90
12013;DHT22;6065;48.138;16.402;2024-02-04T00:27:40;9.70;99.90
12013;DHT22;6065;48.138;16.402;2024-02-04T00:30:07;9.70;99.90
12013;DHT22;6065;48.138;16.402;2024-02-04T00:32:34;9.70;99.90
12013;DHT22;6065;48.138;16.402;2024-02-04T00:35:01;9.70;99.90
12013;DHT22;6065;48.138;16.402;2024-02-04T00:37:28;9.70;99.90
12013;DHT22;6065;48.138;16.402;2024-02-04T00:39:56;9.80;99.90
12013;DHT22;6065;48.138;16.402;2024-02-04T00:42:23;9.70;99.90
12013;DHT22;6065;48.138;16.402;2024-02-04T00:44:50;9.70;99.90
12013;DHT22;6065;48.138;16.402;2024-02-04T00:47:17;9.80;99.90
12013;DHT22;6065;48.138;16.402;2024-02-04T00:49:43;9.70;99.90
12013;DHT22;6065;48.138;16.402;2024-02-04T00:52:10;9.70;99.90
12013;DHT22;6065;48.138;16.402;2024-02-04T00:54:37;9.70;99.90
12013;DHT22;6065;48.138;16.402;2024-02-04T00:57:05;9.70;99.90
12013;DHT22;6065;48.138;16.402;2024-02-04T00:59:32;9.70;99.90
12013;DHT22;6065;48.138;16.402;2024-02-04T01:01:59;9.70;99.90
12013;DHT22;6065;48.138;16.402;2024-02-04T01:04:26;9.70;99.90
12013;DHT22;6065;48.138;16.402;2024-02-04T01:06:52;9.70;99.90
12013;DHT22;6065;48.138;16.402;2024-02-04T01:09:19;9.70;99.90
12013;DHT22;6065;48.138;16.402;2024-02-04T01:11:46;9.70;99.90
12013;DHT22;6065;48.138;16.402;2024-02-04T01:14:14;9.70;99.90
12013;DHT22;6065;48.138;16.402;2024-02-04T01:16:41;9.70;99.90
12013;DHT22;6065;48.138;16.402;2024-02-04T01:19:08;9.70;99.90
12013;DHT22;6065;48.138;16.402;2024-02-04T01:21:34;9.70;99.90
12013;DHT22;6065;48.138;16.402;2024-02-04T01:24:01;9.70;99.90
12013;DHT22;6065;48.138;16.402;2024-02-04T01:26:28;9.70;99.90
12013;DHT22;6065;48.138;16.402;2024-02-04T01:28:55;9.70;99.90
12013;DHT22;6065;48.138;16.402;2024-02-04T01:31:23;9.70;99.90
12013;DHT22;6065;48.138;16.402;2024-02-04T01:33:50;9.60;99.90
12013;DHT22;6065;48.138;16.402;2024-02-04T01:36:16;9.60;99.90
12013;DHT22;6065;48.138;16.402;2024-02-04T01:38:43;9.60;99.90
12013;DHT22;6065;48.138;16.402;2024-02-04T01:41:10;9.50;99.90
12013;DHT22;6065;48.138;16.402;2024-02-04T01:43:37;9.50;99.90
12013;DHT22;6065;48.138;16.402;2024-02-04T01:46:04;9.50;99.90
12013;DHT22;6065;48.138;16.402;2024-02-04T01:48:32;9.50;99.90
12013;DHT22;6065;48.138;16.402;2024-02-04T01:50:59;9.50;99.90
12013;DHT22;6065;48.138;16.402;2024-02-04T01:53:26;9.50;99.90
12013;DHT22;6065;48.138;16.402;2024-02-04T01:55:53;9.40;99.90
12013;DHT22;6065;48.138;16.402;2024-02-04T01:58:20;9.40;99.90
12013;DHT22;6065;48.138;16.402;2024-02-04T02:00:47;9.40;99.90
12013;DHT22;6065;48.138;16.402;2024-02-04T02:03:14;9.40;99.90
12013;DHT22;6065;48.138;16.402;2024-02-04T02:05:43;9.40;99.90
12013;DHT22;6065;48.138;16.402;2024-02-04T02:08:10;9.40;99.90
12013;DHT22;6065;48.138;16.402;2024-02-04T02:10:38;9.30;99.90
12013;DHT22;6065;48.138;16.402;2024-02-04T02:13:10;9.30;99.90
12013;DHT22;6065;48.138;16.402;2024-02-04T02:15:39;9.30;99.90
12013;DHT22;6065;48.138;16.402;2024-02-04T02:18:08;9.30;99.90
12013;DHT22;6065;48.138;16.402;2024-02-04T02:20:38;9.30;99.90
12013;DHT22;6065;48.138;16.402;2024-02-04T02:23:10;9.20;99.90
12013;DHT22;6065;48.138;16.402;2024-02-04T02:25:39;9.20;99.90
12013;DHT22;6065;48.138;16.402;2024-02-04T02:28:07;9.20;99.90
12013;DHT22;6065;48.138;16.402;2024-02-04T02:30:33;9.20;99.90
12013;DHT22;6065;48.138;16.402;2024-02-04T02:33:00;9.20;99.90
12013;DHT22;6065;48.138;16.402;2024-02-04T02:35:31;9.20;99.90
12013;DHT22;6065;48.138;16.402;2024-02-04T02:37:59;9.10;99.90
12013;DHT22;6065;48.138;16.402;2024-02-04T02:40:29;9.10;99.90
12013;DHT22;6065;48.138;16.402;2024-02-04T02:42:58;9.10;99.90
12013;DHT22;6065;48.138;16.402;2024-02-04T02:45:28;9.10;99.90
12013;DHT22;6065;48.138;16.402;2024-02-04T02:47:55;9.10;99.90
12013;DHT22;6065;48.138;16.402;2024-02-04T02:50:22;9.10;99.90
12013;DHT22;6065;48.138;16.402;2024-02-04T02:52:49;9.10;99.90
12013;DHT22;6065;48.138;16.402;2024-02-04T02:55:16;9.10;99.90
12013;DHT22;6065;48.138;16.402;2024-02-04T02:57:42;9.10;99.90
12013;DHT22;6065;48.138;16.402;2024-02-04T03:00:11;9.10;99.90
12013;DHT22;6065;48.138;16.402;2024-02-04T03:02:38;9.10;99.90
12013;DHT22;6065;48.138;16.402;2024-02-04T03:05:05;9.00;99.90
12013;DHT22;6065;48.138;16.402;2024-02-04T03:07:32;9.00;99.90
12013;DHT22;6065;48.138;16.402;2024-02-04T03:09:59;9.10;99.90
12013;DHT22;6065;48.138;16.402;2024-02-04T03:12:26;9.00;99.90
12013;DHT22;6065;48.138;16.402;2024-02-04T03:14:53;9.00;99.90
12013;DHT22;6065;48.138;16.402;2024-02-04T03:17:21;9.00;99.90
12013;DHT22;6065;48.138;16.402;2024-02-04T03:19:48;9.00;99.90
12013;DHT22;6065;48.138;16.402;2024-02-04T03:22:17;9.00;99.90
12013;DHT22;6065;48.138;16.402;2024-02-04T03:24:43;9.00;99.90
12013;DHT22;6065;48.138;16.402;2024-02-04T03:27:11;9.00;99.90
12013;DHT22;6065;48.138;16.402;2024-02-04T03:29:38;9.00;99.90
12013;DHT22;6065;48.138;16.402;2024-02-04T03:32:05;9.00;99.90
12013;DHT22;6065;48.138;16.402;2024-02-04T03:34:33;9.00;99.90
12013;DHT22;6065;48.138;16.402;2024-02-04T03:37:01;9.00;99.90
12013;DHT22;6065;48.138;16.402;2024-02-04T03:39:28;9.00;99.90
12013;DHT22;6065;48.138;16.402;2024-02-04T03:41:54;9.00;99.90
12013;DHT22;6065;48.138;16.402;2024-02-04T03:44:21;9.00;99.90
12013;DHT22;6065;48.138;16.402;2024-02-04T03:46:48;9.00;99.90
12013;DHT22;6065;48.138;16.402;2024-02-04T03:49:15;9.00;99.90
12013;DHT22;6065;48.138;16.402;2024-02-04T03:51:43;9.00;99.90
12013;DHT22;6065;48.138;16.402;2024-02-04T03:54:10;9.00;99.90
12013;DHT22;6065;48.138;16.402;2024-02-04T03:56:37;9.00;99.90
12013;DHT22;6065;48.138;16.402;2024-02-04T03:59:04;9.00;99.90
12013;DHT22;6065;48.138;16.402;2024-02-04T04:01:32;9.00;99.90
12013;DHT22;6065;48.138;16.402;2024-02-04T04:03:58;9.00;99.90
12013;DHT22;6065;48.138;16.402;2024-02-04T04:06:25;9.00;99.90
12013;DHT22;6065;48.138;16.402;2024-02-04T04:08:53;9.00;99.90
12013;DHT22;6065;48.138;16.402;2024-02-04T04:11:20;9.00;99.90
12013;DHT22;6065;48.138;16.402;2024-02-04T04:13:48;9.00;99.90
12013;DHT22;6065;48.138;16.402;2024-02-04T04:16:14;9.00;99.90
12013;DHT22;6065;48.138;16.402;2024-02-04T04:18:41;9.00;99.90
12013;DHT22;6065;48.138;16.402;2024-02-04T04:21:08;9.00;99.90
12013;DHT22;6065;48.138;16.402;2024-02-04T04:23:35;9.00;99.90
12013;DHT22;6065;48.138;16.402;2024-02-04T04:26:03;9.10;99.90
12013;DHT22;6065;48.138;16.402;2024-02-04T04:28:31;9.00;99.90
12013;DHT22;6065;48.138;16.402;2024-02-04T04:30:57;9.00;99.90
12013;DHT22;6065;48.138;16.402;2024-02-04T04:33:24;9.00;99.90
12013;DHT22;6065;48.138;16.402;2024-02-04T04:35:51;9.00;99.90
12013;DHT22;6065;48.138;16.402;2024-02-04T04:38:18;9.00;99.90
12013;DHT22;6065;48.138;16.402;2024-02-04T04:40:44;9.00;99.90
12013;DHT22;6065;48.138;16.402;2024-02-04T04:43:13;9.00;99.90
12013;DHT22;6065;48.138;16.402;2024-02-04T04:45:39;9.00;99.90
12013;DHT22;6065;48.138;16.402;2024-02-04T04:48:06;9.00;99.90
12013;DHT22;6065;48.138;16.402;2024-02-04T04:50:34;9.00;99.90
12013;DHT22;6065;48.138;16.402;2024-02-04T04:53:01;9.00;99.90
12013;DHT22;6065;48.138;16.402;2024-02-04T04:55:28;9.00;99.90
12013;DHT22;6065;48.138;16.402;2024-02-04T04:57:54;9.00;99.90
12013;DHT22;6065;48.138;16.402;2024-02-04T05:00:23;9.00;99.90
12013;DHT22;6065;48.138;16.402;2024-02-04T05:02:49;9.00;99.90
12013;DHT22;6065;48.138;16.402;2024-02-04T05:05:16;9.00;99.90
12013;DHT22;6065;48.138;16.402;2024-02-04T05:07:43;9.00;99.90
12013;DHT22;6065;48.138;16.402;2024-02-04T05:10:11;9.00;99.90
12013;DHT22;6065;48.138;16.402;2024-02-04T05:12:38;9.00;99.90
12013;DHT22;6065;48.138;16.402;2024-02-04T05:15:05;9.00;99.90
12013;DHT22;6065;48.138;16.402;2024-02-04T05:17:34;9.00;99.90
12013;DHT22;6065;48.138;16.402;2024-02-04T05:20:01;9.10;99.90
12013;DHT22;6065;48.138;16.402;2024-02-04T05:22:29;9.00;99.90
12013;DHT22;6065;48.138;16.402;2024-02-04T05:24:56;9.10;99.90
12013;DHT22;6065;48.138;16.402;2024-02-04T05:27:23;9.00;99.90
12013;DHT22;6065;48.138;16.402;2024-02-04T05:29:50;9.00;99.90
12013;DHT22;6065;48.138;16.402;2024-02-04T05:32:17;9.00;99.90
12013;DHT22;6065;48.138;16.402;2024-02-04T05:34:45;9.00;99.90
12013;DHT22;6065;48.138;16.402;2024-02-04T05:37:11;9.00;99.90
12013;DHT22;6065;48.138;16.402;2024-02-04T05:39:38;9.00;99.90
12013;DHT22;6065;48.138;16.402;2024-02-04T05:42:05;9.00;99.90
12013;DHT22;6065;48.138;16.402;2024-02-04T05:44:32;9.00;99.90
12013;DHT22;6065;48.138;16.402;2024-02-04T05:46:59;9.00;99.90
12013;DHT22;6065;48.138;16.402;2024-02-04T05:49:25;9.00;99.90
12013;DHT22;6065;48.138;16.402;2024-02-04T05:51:53;9.10;99.90
12013;DHT22;6065;48.138;16.402;2024-02-04T05:54:20;9.00;99.90
12013;DHT22;6065;48.138;16.402;2024-02-04T05:56:47;9.00;99.90
12013;DHT22;6065;48.138;16.402;2024-02-04T05:59:14;9.00;99.90
12013;DHT22;6065;48.138;16.402;2024-02-04T06:01:42;9.00;99.90
12013;DHT22;6065;48.138;16.402;2024-02-04T06:04:10;9.00;99.90
12013;DHT22;6065;48.138;16.402;2024-02-04T06:06:37;9.00;99.90
12013;DHT22;6065;48.138;16.402;2024-02-04T06:09:05;8.90;99.90
12013;DHT22;6065;48.138;16.402;2024-02-04T06:11:33;8.90;99.90
12013;DHT22;6065;48.138;16.402;2024-02-04T06:14:00;8.90;99.90
12013;DHT22;6065;48.138;16.402;2024-02-04T06:16:27;8.90;99.90
12013;DHT22;6065;48.138;16.402;2024-02-04T06:18:54;8.90;99.90
12013;DHT22;6065;48.138;16.402;2024-02-04T06:21:23;8.90;99.90
12013;DHT22;6065;48.138;16.402;2024-02-04T06:23:50;8.90;99.90
12013;DHT22;6065;48.138;16.402;2024-02-04T06:26:18;8.90;99.90
12013;DHT22;6065;48.138;16.402;2024-02-04T06:28:45;8.90;99.90
12013;DHT22;6065;48.138;16.402;2024-02-04T06:31:14;8.90;99.90
12013;DHT22;6065;48.138;16.402;2024-02-04T06:33:41;8.90;99.90
12013;DHT22;6065;48.138;16.402;2024-02-04T06:36:08;8.90;99.90
12013;DHT22;6065;48.138;16.402;2024-02-04T06:38:35;8.90;99.90
12013;DHT22;6065;48.138;16.402;2024-02-04T06:41:02;8.90;99.90
12013;DHT22;6065;48.138;16.402;2024-02-04T06:43:30;8.90;99.90
12013;DHT22;6065;48.138;16.402;2024-02-04T06:45:57;8.90;99.90
12013;DHT22;6065;48.138;16.402;2024-02-04T06:48:24;8.90;99.90
12013;DHT22;6065;48.138;16.402;2024-02-04T06:50:50;8.90;99.90
12013;DHT22;6065;48.138;16.402;2024-02-04T06:53:17;8.90;99.90
12013;DHT22;6065;48.138;16.402;2024-02-04T06:55:44;8.90;99.90
12013;DHT22;6065;48.138;16.402;2024-02-04T06:58:11;8.90;99.90
12013;DHT22;6065;48.138;16.402;2024-02-04T07:00:39;8.90;99.90
12013;DHT22;6065;48.138;16.402;2024-02-04T07:03:06;9.00;99.90
12013;DHT22;6065;48.138;16.402;2024-02-04T07:05:33;9.00;99.90
12013;DHT22;6065;48.138;16.402;2024-02-04T07:08:00;9.00;99.90
12013;DHT22;6065;48.138;16.402;2024-02-04T07:10:26;9.00;99.90
12013;DHT22;6065;48.138;16.402;2024-02-04T07:12:53;9.00;99.90
12013;DHT22;6065;48.138;16.402;2024-02-04T07:15:20;9.00;99.90
12013;DHT22;6065;48.138;16.402;2024-02-04T07:17:48;9.10;99.90
12013;DHT22;6065;48.138;16.402;2024-02-04T07:20:15;9.10;99.90
12013;DHT22;6065;48.138;16.402;2024-02-04T07:22:42;9.10;99.90
12013;DHT22;6065;48.138;16.402;2024-02-04T07:25:09;9.10;99.90
12013;DHT22;6065;48.138;16.402;2024-02-04T07:27:36;9.10;99.90
12013;DHT22;6065;48.138;16.402;2024-02-04T07:30:03;9.10;99.90
12013;DHT22;6065;48.138;16.402;2024-02-04T07:32:30;9.10;99.90
12013;DHT22;6065;48.138;16.402;2024-02-04T07:35:01;9.10;99.90
12013;DHT22;6065;48.138;16.402;2024-02-04T07:37:28;9.10;99.90
12013;DHT22;6065;48.138;16.402;2024-02-04T07:39:54;9.10;99.90
12013;DHT22;6065;48.138;16.402;2024-02-04T07:42:21;9.10;99.90
12013;DHT22;6065;48.138;16.402;2024-02-04T07:44:48;9.20;99.90
12013;DHT22;6065;48.138;16.402;2024-02-04T07:47:15;9.20;99.90
12013;DHT22;6065;48.138;16.402;2024-02-04T07:49:42;9.20;99.90
12013;DHT22;6065;48.138;16.402;2024-02-04T07:52:10;9.30;99.90
12013;DHT22;6065;48.138;16.402;2024-02-04T07:54:37;9.30;99.90
12013;DHT22;6065;48.138;16.402;2024-02-04T07:57:04;9.30;99.90
12013;DHT22;6065;48.138;16.402;2024-02-04T07:59:31;9.40;99.90
12013;DHT22;6065;48.138;16.402;2024-02-04T08:01:58;9.40;99.90
12013;DHT22;6065;48.138;16.402;2024-02-04T08:04:24;9.40;99.90
12013;DHT22;6065;48.138;16.402;2024-02-04T08:06:51;9.40;99.90
12013;DHT22;6065;48.138;16.402;2024-02-04T08:09:20;9.40;99.90
12013;DHT22;6065;48.138;16.402;2024-02-04T08:11:46;9.40;99.90
12013;DHT22;6065;48.138;16.402;2024-02-04T08:14:13;9.50;99.90
12013;DHT22;6065;48.138;16.402;2024-02-04T08:16:42;9.50;99.90
12013;DHT22;6065;48.138;16.402;2024-02-04T08:19:11;9.50;99.90
12013;DHT22;6065;48.138;16.402;2024-02-04T08:21:39;9.60;99.90
12013;DHT22;6065;48.138;16.402;2024-02-04T08:24:06;9.60;99.90
12013;DHT22;6065;48.138;16.402;2024-02-04T08:26:34;9.60;99.90
12013;DHT22;6065;48.138;16.402;2024-02-04T08:29:01;9.60;99.90
12013;DHT22;6065;48.138;16.402;2024-02-04T08:31:29;9.60;99.90
12013;DHT22;6065;48.138;16.402;2024-02-04T08:33:56;9.70;99.90
12013;DHT22;6065;48.138;16.402;2024-02-04T08:36:23;9.70;99.90
12013;DHT22;6065;48.138;16.402;2024-02-04T08:38:50;9.70;99.90
12013;DHT22;6065;48.138;16.402;2024-02-04T08:41:17;9.80;99.90
12013;DHT22;6065;48.138;16.402;2024-02-04T08:43:45;9.80;99.90
12013;DHT22;6065;48.138;16.402;2024-02-04T08:46:12;9.80;99.90
12013;DHT22;6065;48.138;16.402;2024-02-04T08:48:39;9.80;99.90
12013;DHT22;6065;48.138;16.402;2024-02-04T08:51:09;9.80;99.90
12013;DHT22;6065;48.138;16.402;2024-02-04T08:53:36;9.80;99.90
12013;DHT22;6065;48.138;16.402;2024-02-04T08:56:03;9.90;99.90
12013;DHT22;6065;48.138;16.402;2024-02-04T08:58:31;9.90;99.90
12013;DHT22;6065;48.138;16.402;2024-02-04T09:00:59;10.00;99.90
12013;DHT22;6065;48.138;16.402;2024-02-04T09:03:26;10.00;99.90
12013;DHT22;6065;48.138;16.402;2024-02-04T09:05:53;10.00;99.90
12013;DHT22;6065;48.138;16.402;2024-02-04T09:08:20;10.10;99.90
12013;DHT22;6065;48.138;16.402;2024-02-04T09:10:47;10.10;99.90
12013;DHT22;6065;48.138;16.402;2024-02-04T09:13:13;10.10;99.90
12013;DHT22;6065;48.138;16.402;2024-02-04T09:15:40;10.20;99.90
12013;DHT22;6065;48.138;16.402;2024-02-04T09:18:08;10.20;99.90
12013;DHT22;6065;48.138;16.402;2024-02-04T09:20:35;10.20;99.90
12013;DHT22;6065;48.138;16.402;2024-02-04T09:23:02;10.20;99.90
12013;DHT22;6065;48.138;16.402;2024-02-04T09:25:30;10.20;99.90
12013;DHT22;6065;48.138;16.402;2024-02-04T09:27:57;10.20;99.90
12013;DHT22;6065;48.138;16.402;2024-02-04T09:30:24;10.20;99.90
12013;DHT22;6065;48.138;16.402;2024-02-04T09:32:50;10.30;99.90
12013;DHT22;6065;48.138;16.402;2024-02-04T09:35:19;10.30;99.90
12013;DHT22;6065;48.138;16.402;2024-02-04T09:37:46;10.30;99.90
12013;DHT22;6065;48.138;16.402;2024-02-04T09:40:12;10.30;99.90
12013;DHT22;6065;48.138;16.402;2024-02-04T09:42:40;10.30;99.90
12013;DHT22;6065;48.138;16.402;2024-02-04T09:45:07;10.40;99.90
12013;DHT22;6065;48.138;16.402;2024-02-04T09:47:34;10.40;99.90
12013;DHT22;6065;48.138;16.402;2024-02-04T09:50:01;10.50;99.90
12013;DHT22;6065;48.138;16.402;2024-02-04T09:52:30;10.60;99.90
12013;DHT22;6065;48.138;16.402;2024-02-04T09:54:59;10.70;99.90
12013;DHT22;6065;48.138;16.402;2024-02-04T09:57:26;10.70;99.90
12013;DHT22;6065;48.138;16.402;2024-02-04T09:59:53;10.80;99.90
12013;DHT22;6065;48.138;16.402;2024-02-04T10:02:20;10.80;99.90
12013;DHT22;6065;48.138;16.402;2024-02-04T10:04:47;10.90;99.90
12013;DHT22;6065;48.138;16.402;2024-02-04T10:07:14;11.00;99.90
12013;DHT22;6065;48.138;16.402;2024-02-04T10:09:43;11.20;99.90
12013;DHT22;6065;48.138;16.402;2024-02-04T10:12:10;11.20;99.90
12013;DHT22;6065;48.138;16.402;2024-02-04T10:14:37;11.30;99.90
12013;DHT22;6065;48.138;16.402;2024-02-04T10:17:04;11.30;99.90
12013;DHT22;6065;48.138;16.402;2024-02-04T10:19:31;11.30;99.90
12013;DHT22;6065;48.138;16.402;2024-02-04T10:21:59;11.40;99.90
12013;DHT22;6065;48.138;16.402;2024-02-04T10:24:26;11.40;99.90
12013;DHT22;6065;48.138;16.402;2024-02-04T10:26:54;11.40;99.90
12013;DHT22;6065;48.138;16.402;2024-02-04T10:29:21;11.40;99.90
12013;DHT22;6065;48.138;16.402;2024-02-04T10:31:48;11.30;99.90
12013;DHT22;6065;48.138;16.402;2024-02-04T10:34:15;11.30;99.90
12013;DHT22;6065;48.138;16.402;2024-02-04T10:36:41;11.30;99.90
12013;DHT22;6065;48.138;16.402;2024-02-04T10:39:08;11.30;99.90
12013;DHT22;6065;48.138;16.402;2024-02-04T10:41:35;11.30;99.90
12013;DHT22;6065;48.138;16.402;2024-02-04T10:44:08;11.30;99.90
12013;DHT22;6065;48.138;16.402;2024-02-04T10:46:37;11.30;99.90
12013;DHT22;6065;48.138;16.402;2024-02-04T10:49:05;11.30;99.90
12013;DHT22;6065;48.138;16.402;2024-02-04T10:51:33;11.30;99.90
12013;DHT22;6065;48.138;16.402;2024-02-04T10:54:01;11.30;99.90
12013;DHT22;6065;48.138;16.402;2024-02-04T10:56:29;11.30;99.90
12013;DHT22;6065;48.138;16.402;2024-02-04T10:58:57;11.30;99.90
12013;DHT22;6065;48.138;16.402;2024-02-04T11:01:27;11.30;99.90
12013;DHT22;6065;48.138;16.402;2024-02-04T11:03:54;11.20;99.90
12013;DHT22;6065;48.138;16.402;2024-02-04T11:06:21;11.20;99.90
12013;DHT22;6065;48.138;16.402;2024-02-04T11:08:49;11.20;99.90
12013;DHT22;6065;48.138;16.402;2024-02-04T11:11:16;11.30;99.90
12013;DHT22;6065;48.138;16.402;2024-02-04T11:13:43;11.30;99.90
12013;DHT22;6065;48.138;16.402;2024-02-04T11:16:12;11.40;99.90
12013;DHT22;6065;48.138;16.402;2024-02-04T11:18:50;11.50;99.90
12013;DHT22;6065;48.138;16.402;2024-02-04T11:21:25;11.50;99.90
12013;DHT22;6065;48.138;16.402;2024-02-04T11:23:59;11.50;99.90
12013;DHT22;6065;48.138;16.402;2024-02-04T11:26:32;11.50;99.90
12013;DHT22;6065;48.138;16.402;2024-02-04T11:29:00;11.50;99.90
12013;DHT22;6065;48.138;16.402;2024-02-04T11:31:28;11.50;99.90
12013;DHT22;6065;48.138;16.402;2024-02-04T11:33:57;11.50;99.90
12013;DHT22;6065;48.138;16.402;2024-02-04T11:36:24;11.40;99.90
12013;DHT22;6065;48.138;16.402;2024-02-04T11:38:51;11.40;99.90
12013;DHT22;6065;48.138;16.402;2024-02-04T11:41:21;11.40;99.90
12013;DHT22;6065;48.138;16.402;2024-02-04T11:43:51;11.40;99.90
12013;DHT22;6065;48.138;16.402;2024-02-04T11:46:18;11.40;99.90
12013;DHT22;6065;48.138;16.402;2024-02-04T11:48:50;11.40;99.90
12013;DHT22;6065;48.138;16.402;2024-02-04T11:51:21;11.30;99.90
12013;DHT22;6065;48.138;16.402;2024-02-04T11:53:48;11.30;99.90
12013;DHT22;6065;48.138;16.402;2024-02-04T11:56:15;11.30;99.90
12013;DHT22;6065;48.138;16.402;2024-02-04T11:58:42;11.30;99.90
12013;DHT22;6065;48.138;16.402;2024-02-04T12:01:09;11.30;99.90
12013;DHT22;6065;48.138;16.402;2024-02-04T12:03:36;11.30;99.90
12013;DHT22;6065;48.138;16.402;2024-02-04T12:06:03;11.30;99.90
12013;DHT22;6065;48.138;16.402;2024-02-04T12:08:32;11.30;99.90
12013;DHT22;6065;48.138;16.402;2024-02-04T12:10:59;11.30;99.90
12013;DHT22;6065;48.138;16.402;2024-02-04T12:13:27;11.30;99.90
12013;DHT22;6065;48.138;16.402;2024-02-04T12:15:54;11.30;99.90
12013;DHT22;6065;48.138;16.402;2024-02-04T12:18:21;11.40;99.90
12013;DHT22;6065;48.138;16.402;2024-02-04T12:20:48;11.40;99.90
12013;DHT22;6065;48.138;16.402;2024-02-04T12:23:16;11.40;99.90
12013;DHT22;6065;48.138;16.402;2024-02-04T12:25:44;11.40;99.90
12013;DHT22;6065;48.138;16.402;2024-02-04T12:28:11;11.50;99.90
12013;DHT22;6065;48.138;16.402;2024-02-04T12:30:40;11.50;99.90
12013;DHT22;6065;48.138;16.402;2024-02-04T12:33:07;11.50;99.90
12013;DHT22;6065;48.138;16.402;2024-02-04T12:35:34;11.50;99.90
12013;DHT22;6065;48.138;16.402;2024-02-04T12:38:01;11.50;99.90
12013;DHT22;6065;48.138;16.402;2024-02-04T12:40:29;11.50;99.90
12013;DHT22;6065;48.138;16.402;2024-02-04T12:42:58;11.60;99.90
12013;DHT22;6065;48.138;16.402;2024-02-04T12:45:26;11.60;99.90
12013;DHT22;6065;48.138;16.402;2024-02-04T12:47:54;11.60;99.90
12013;DHT22;6065;48.138;16.402;2024-02-04T12:50:21;11.60;99.90
12013;DHT22;6065;48.138;16.402;2024-02-04T12:52:49;11.60;99.90
12013;DHT22;6065;48.138;16.402;2024-02-04T12:55:20;11.60;99.90
12013;DHT22;6065;48.138;16.402;2024-02-04T12:57:47;11.60;99.90
12013;DHT22;6065;48.138;16.402;2024-02-04T13:00:18;11.50;99.90
12013;DHT22;6065;48.138;16.402;2024-02-04T13:02:48;11.50;99.90
12013;DHT22;6065;48.138;16.402;2024-02-04T13:05:21;11.50;99.90
12013;DHT22;6065;48.138;16.402;2024-02-04T13:07:53;11.50;99.90
12013;DHT22;6065;48.138;16.402;2024-02-04T13:10:21;11.40;99.90
12013;DHT22;6065;48.138;16.402;2024-02-04T13:12:57;11.40;99.90
12013;DHT22;6065;48.138;16.402;2024-02-04T13:15:25;11.40;99.90
12013;DHT22;6065;48.138;16.402;2024-02-04T13:17:52;11.50;99.90
12013;DHT22;6065;48.138;16.402;2024-02-04T13:20:19;11.50;99.90
12013;DHT22;6065;48.138;16.402;2024-02-04T13:22:45;11.50;99.90
12013;DHT22;6065;48.138;16.402;2024-02-04T13:25:12;11.40;99.90
12013;DHT22;6065;48.138;16.402;2024-02-04T13:27:39;11.40;99.90
12013;DHT22;6065;48.138;16.402;2024-02-04T13:30:07;11.40;99.90
12013;DHT22;6065;48.138;16.402;2024-02-04T13:32:39;11.30;99.90
12013;DHT22;6065;48.138;16.402;2024-02-04T13:35:07;11.30;99.90
12013;DHT22;6065;48.138;16.402;2024-02-04T13:37:35;11.30;99.90
12013;DHT22;6065;48.138;16.402;2024-02-04T13:40:02;11.30;99.90
12013;DHT22;6065;48.138;16.402;2024-02-04T13:42:31;11.30;99.90
12013;DHT22;6065;48.138;16.402;2024-02-04T13:44:57;11.30;99.90
12013;DHT22;6065;48.138;16.402;2024-02-04T13:47:24;11.30;99.90
12013;DHT22;6065;48.138;16.402;2024-02-04T13:49:53;11.30;99.90
12013;DHT22;6065;48.138;16.402;2024-02-04T13:52:19;11.30;99.90
12013;DHT22;6065;48.138;16.402;2024-02-04T13:54:46;11.30;99.90
12013;DHT22;6065;48.138;16.402;2024-02-04T13:57:13;11.30;99.90
12013;DHT22;6065;48.138;16.402;2024-02-04T13:59:40;11.30;99.90
12013;DHT22;6065;48.138;16.402;2024-02-04T14:02:07;11.30;99.90
12013;DHT22;6065;48.138;16.402;2024-02-04T14:04:34;11.30;99.90
12013;DHT22;6065;48.138;16.402;2024-02-04T14:07:02;11.30;99.90
12013;DHT22;6065;48.138;16.402;2024-02-04T14:09:29;11.30;99.90
12013;DHT22;6065;48.138;16.402;2024-02-04T14:11:56;11.30;99.90
12013;DHT22;6065;48.138;16.402;2024-02-04T14:14:23;11.30;99.90
12013;DHT22;6065;48.138;16.402;2024-02-04T14:16:50;11.30;99.90
12013;DHT22;6065;48.138;16.402;2024-02-04T14:19:17;11.30;99.90
12013;DHT22;6065;48.138;16.402;2024-02-04T14:21:44;11.30;99.90
12013;DHT22;6065;48.138;16.402;2024-02-04T14:24:12;11.30;99.90
12013;DHT22;6065;48.138;16.402;2024-02-04T14:26:39;11.30;99.90
12013;DHT22;6065;48.138;16.402;2024-02-04T14:29:07;11.30;99.90
12013;DHT22;6065;48.138;16.402;2024-02-04T14:31:34;11.30;99.90
12013;DHT22;6065;48.138;16.402;2024-02-04T14:34:00;11.30;99.90
12013;DHT22;6065;48.138;16.402;2024-02-04T14:36:27;11.20;99.90
12013;DHT22;6065;48.138;16.402;2024-02-04T14:38:55;11.20;99.90
12013;DHT22;6065;48.138;16.402;2024-02-04T14:41:24;11.20;99.90
12013;DHT22;6065;48.138;16.402;2024-02-04T14:43:50;11.20;99.90
12013;DHT22;6065;48.138;16.402;2024-02-04T14:46:17;11.20;99.90
12013;DHT22;6065;48.138;16.402;2024-02-04T14:48:44;11.20;99.90
12013;DHT22;6065;48.138;16.402;2024-02-04T14:51:11;11.20;99.90
12013;DHT22;6065;48.138;16.402;2024-02-04T14:53:38;11.20;99.90
12013;DHT22;6065;48.138;16.402;2024-02-04T14:56:04;11.10;99.90
12013;DHT22;6065;48.138;16.402;2024-02-04T14:58:33;11.10;99.90
12013;DHT22;6065;48.138;16.402;2024-02-04T15:01:00;11.10;99.90
12013;DHT22;6065;48.138;16.402;2024-02-04T15:03:27;11.10;99.90
12013;DHT22;6065;48.138;16.402;2024-02-04T15:05:54;11.00;99.90
12013;DHT22;6065;48.138;16.402;2024-02-04T15:08:20;11.00;99.90
12013;DHT22;6065;48.138;16.402;2024-02-04T15:10:48;11.00;99.90
12013;DHT22;6065;48.138;16.402;2024-02-04T15:13:15;11.00;99.90
12013;DHT22;6065;48.138;16.402;2024-02-04T15:15:44;11.00;99.90
12013;DHT22;6065;48.138;16.402;2024-02-04T15:18:11;11.00;99.90
12013;DHT22;6065;48.138;16.402;2024-02-04T15:20:38;11.00;99.90
12013;DHT22;6065;48.138;16.402;2024-02-04T15:23:06;11.00;99.90
12013;DHT22;6065;48.138;16.402;2024-02-04T15:25:33;11.00;99.90
12013;DHT22;6065;48.138;16.402;2024-02-04T15:28:00;11.00;99.90
12013;DHT22;6065;48.138;16.402;2024-02-04T15:30:28;11.00;99.90
12013;DHT22;6065;48.138;16.402;2024-02-04T15:32:56;11.00;99.90
12013;DHT22;6065;48.138;16.402;2024-02-04T15:35:23;11.00;99.90
12013;DHT22;6065;48.138;16.402;2024-02-04T15:37:51;11.00;99.90
12013;DHT22;6065;48.138;16.402;2024-02-04T15:40:18;11.00;99.90